sensor_id;sensor_type;location;lat;lon;timestamp;P1;durP1;ratioP1;P2;durP2;ratioP2
55037;SDS011;40937;53.594;10.034;2023-01-28T00:00:49;2.15;;;1.30;;
55037;SDS011;40937;53.594;10.034;2023-01-28T00:03:16;2.10;;;1.73;;
55037;SDS011;40937;53.594;10.034;2023-01-28T00:05:43;2.75;;;1.67;;
55037;SDS011;40937;53.594;10.034;2023-01-28T00:08:09;1.40;;;1.30;;
55037;SDS011;40937;53.594;10.034;2023-01-28T00:10:37;3.15;;;1.67;;
55037;SDS011;40937;53.594;10.034;2023-01-28T00:13:04;1.45;;;1.30;;
55037;SDS011;40937;53.594;10.034;2023-01-28T00:15:32;1.58;;;1.48;;
55037;SDS011;40937;53.594;10.034;2023-01-28T00:17:59;3.38;;;1.30;;
55037;SDS011;40937;53.594;10.034;2023-01-28T00:20:25;2.03;;;1.52;;
55037;SDS011;40937;53.594;10.034;2023-01-28T00:22:52;2.78;;;1.58;;
55037;SDS011;40937;53.594;10.034;2023-01-28T00:25:19;1.63;;;1.30;;
55037;SDS011;40937;53.594;10.034;2023-01-28T00:27:46;1.85;;;1.20;;
55037;SDS011;40937;53.594;10.034;2023-01-28T00:30:15;1.88;;;1.52;;
55037;SDS011;40937;53.594;10.034;2023-01-28T00:32:45;2.03;;;1.50;;
55037;SDS011;40937;53.594;10.034;2023-01-28T00:35:12;2.05;;;1.25;;
55037;SDS011;40937;53.594;10.034;2023-01-28T00:37:40;2.72;;;1.48;;
55037;SDS011;40937;53.594;10.034;2023-01-28T00:40:07;1.65;;;1.23;;
55037;SDS011;40937;53.594;10.034;2023-01-28T00:42:35;2.70;;;1.65;;
55037;SDS011;40937;53.594;10.034;2023-01-28T00:45:02;2.60;;;1.58;;
55037;SDS011;40937;53.594;10.034;2023-01-28T00:47:29;4.93;;;1.58;;
55037;SDS011;40937;53.594;10.034;2023-01-28T00:49:57;2.22;;;1.10;;
55037;SDS011;40937;53.594;10.034;2023-01-28T00:52:23;1.98;;;1.50;;
55037;SDS011;40937;53.594;10.034;2023-01-28T00:54:52;1.77;;;1.02;;
55037;SDS011;40937;53.594;10.034;2023-01-28T00:57:19;1.83;;;1.20;;
55037;SDS011;40937;53.594;10.034;2023-01-28T00:59:46;1.58;;;1.30;;
55037;SDS011;40937;53.594;10.034;2023-01-28T01:02:12;13.00;;;1.52;;
55037;SDS011;40937;53.594;10.034;2023-01-28T01:04:39;1.55;;;0.95;;
55037;SDS011;40937;53.594;10.034;2023-01-28T01:07:21;4.72;;;1.35;;
55037;SDS011;40937;53.594;10.034;2023-01-28T01:09:59;1.60;;;1.50;;
55037;SDS011;40937;53.594;10.034;2023-01-28T01:12:26;4.43;;;1.58;;
55037;SDS011;40937;53.594;10.034;2023-01-28T01:14:52;2.88;;;1.55;;
55037;SDS011;40937;53.594;10.034;2023-01-28T01:17:19;3.55;;;1.90;;
55037;SDS011;40937;53.594;10.034;2023-01-28T01:19:46;3.35;;;1.95;;
55037;SDS011;40937;53.594;10.034;2023-01-28T01:22:13;3.58;;;1.48;;
55037;SDS011;40937;53.594;10.034;2023-01-28T01:24:41;2.85;;;1.77;;
55037;SDS011;40937;53.594;10.034;2023-01-28T01:27:08;2.45;;;1.33;;
55037;SDS011;40937;53.594;10.034;2023-01-28T01:29:35;1.73;;;1.35;;
55037;SDS011;40937;53.594;10.034;2023-01-28T01:32:02;2.42;;;1.30;;
55037;SDS011;40937;53.594;10.034;2023-01-28T01:34:28;5.00;;;1.90;;
55037;SDS011;40937;53.594;10.034;2023-01-28T01:36:55;1.48;;;1.30;;
55037;SDS011;40937;53.594;10.034;2023-01-28T01:39:22;3.20;;;1.55;;
55037;SDS011;40937;53.594;10.034;2023-01-28T01:41:50;2.22;;;1.42;;
55037;SDS011;40937;53.594;10.034;2023-01-28T01:47:19;2.25;;;1.40;;
55037;SDS011;40937;53.594;10.034;2023-01-28T01:49:50;2.92;;;1.55;;
55037;SDS011;40937;53.594;10.034;2023-01-28T01:52:18;2.17;;;1.60;;
55037;SDS011;40937;53.594;10.034;2023-01-28T01:54:50;2.25;;;1.30;;
55037;SDS011;40937;53.594;10.034;2023-01-28T01:57:22;3.63;;;1.80;;
55037;SDS011;40937;53.594;10.034;2023-01-28T01:59:52;1.65;;;1.25;;
55037;SDS011;40937;53.594;10.034;2023-01-28T02:02:20;2.55;;;1.52;;
55037;SDS011;40937;53.594;10.034;2023-01-28T02:04:47;1.10;;;0.93;;
55037;SDS011;40937;53.594;10.034;2023-01-28T02:07:16;1.20;;;1.10;;
55037;SDS011;40937;53.594;10.034;2023-01-28T02:09:44;1.75;;;1.60;;
55037;SDS011;40937;53.594;10.034;2023-01-28T02:12:11;1.80;;;1.30;;
55037;SDS011;40937;53.594;10.034;2023-01-28T02:14:43;2.63;;;1.27;;
55037;SDS011;40937;53.594;10.034;2023-01-28T02:17:13;3.63;;;1.50;;
55037;SDS011;40937;53.594;10.034;2023-01-28T02:19:43;2.78;;;1.30;;
55037;SDS011;40937;53.594;10.034;2023-01-28T02:22:18;5.18;;;1.77;;
55037;SDS011;40937;53.594;10.034;2023-01-28T02:28:01;3.08;;;1.13;;
55037;SDS011;40937;53.594;10.034;2023-01-28T02:30:39;3.67;;;1.70;;
55037;SDS011;40937;53.594;10.034;2023-01-28T02:33:10;3.55;;;1.60;;
55037;SDS011;40937;53.594;10.034;2023-01-28T02:35:42;3.00;;;1.65;;
55037;SDS011;40937;53.594;10.034;2023-01-28T02:38:13;3.72;;;1.20;;
55037;SDS011;40937;53.594;10.034;2023-01-28T02:40:44;3.33;;;1.27;;
55037;SDS011;40937;53.594;10.034;2023-01-28T02:43:31;2.55;;;1.40;;
55037;SDS011;40937;53.594;10.034;2023-01-28T02:45:59;1.52;;;1.30;;
55037;SDS011;40937;53.594;10.034;2023-01-28T02:48:45;2.78;;;1.30;;
55037;SDS011;40937;53.594;10.034;2023-01-28T02:51:14;1.95;;;1.27;;
55037;SDS011;40937;53.594;10.034;2023-01-28T02:53:49;2.53;;;1.40;;
55037;SDS011;40937;53.594;10.034;2023-01-28T02:56:24;2.45;;;1.35;;
55037;SDS011;40937;53.594;10.034;2023-01-28T02:59:02;2.85;;;1.42;;
55037;SDS011;40937;53.594;10.034;2023-01-28T03:01:51;2.05;;;1.23;;
55037;SDS011;40937;53.594;10.034;2023-01-28T03:04:23;1.40;;;1.25;;
55037;SDS011;40937;53.594;10.034;2023-01-28T03:06:54;2.75;;;1.42;;
55037;SDS011;40937;53.594;10.034;2023-01-28T03:09:27;8.32;;;1.40;;
55037;SDS011;40937;53.594;10.034;2023-01-28T03:11:56;1.90;;;1.38;;
55037;SDS011;40937;53.594;10.034;2023-01-28T03:14:46;1.52;;;1.23;;
55037;SDS011;40937;53.594;10.034;2023-01-28T03:17:35;3.22;;;1.52;;
55037;SDS011;40937;53.594;10.034;2023-01-28T03:20:23;2.78;;;1.30;;
55037;SDS011;40937;53.594;10.034;2023-01-28T03:23:10;1.75;;;1.33;;
55037;SDS011;40937;53.594;10.034;2023-01-28T03:26:00;2.45;;;1.42;;
55037;SDS011;40937;53.594;10.034;2023-01-28T03:28:47;2.60;;;1.13;;
55037;SDS011;40937;53.594;10.034;2023-01-28T03:31:33;2.50;;;1.92;;
55037;SDS011;40937;53.594;10.034;2023-01-28T03:34:20;4.10;;;1.50;;
55037;SDS011;40937;53.594;10.034;2023-01-28T03:37:06;1.50;;;1.40;;
55037;SDS011;40937;53.594;10.034;2023-01-28T03:39:44;1.10;;;1.10;;
55037;SDS011;40937;53.594;10.034;2023-01-28T03:42:12;1.63;;;1.27;;
55037;SDS011;40937;53.594;10.034;2023-01-28T03:45:01;2.50;;;1.50;;
55037;SDS011;40937;53.594;10.034;2023-01-28T03:47:31;2.20;;;1.40;;
55037;SDS011;40937;53.594;10.034;2023-01-28T03:50:00;2.45;;;1.70;;
55037;SDS011;40937;53.594;10.034;2023-01-28T03:52:31;3.38;;;1.73;;
55037;SDS011;40937;53.594;10.034;2023-01-28T03:55:14;1.58;;;1.40;;
55037;SDS011;40937;53.594;10.034;2023-01-28T03:57:42;1.83;;;1.48;;
55037;SDS011;40937;53.594;10.034;2023-01-28T04:00:11;1.70;;;1.45;;
55037;SDS011;40937;53.594;10.034;2023-01-28T04:02:42;4.85;;;2.10;;
55037;SDS011;40937;53.594;10.034;2023-01-28T04:05:13;3.85;;;2.17;;
55037;SDS011;40937;53.594;10.034;2023-01-28T04:07:46;2.03;;;1.80;;
55037;SDS011;40937;53.594;10.034;2023-01-28T04:10:39;3.28;;;2.20;;
55037;SDS011;40937;53.594;10.034;2023-01-28T04:13:20;3.53;;;2.08;;
55037;SDS011;40937;53.594;10.034;2023-01-28T04:15:47;3.53;;;1.75;;
55037;SDS011;40937;53.594;10.034;2023-01-28T04:18:16;3.70;;;1.90;;
55037;SDS011;40937;53.594;10.034;2023-01-28T04:20:47;10.75;;;2.50;;
55037;SDS011;40937;53.594;10.034;2023-01-28T04:23:15;1.90;;;1.70;;
55037;SDS011;40937;53.594;10.034;2023-01-28T04:25:43;3.70;;;2.20;;
55037;SDS011;40937;53.594;10.034;2023-01-28T04:28:10;5.03;;;2.08;;
55037;SDS011;40937;53.594;10.034;2023-01-28T04:30:36;4.65;;;2.45;;
55037;SDS011;40937;53.594;10.034;2023-01-28T04:33:13;3.45;;;2.78;;
55037;SDS011;40937;53.594;10.034;2023-01-28T04:35:50;5.50;;;2.30;;
55037;SDS011;40937;53.594;10.034;2023-01-28T04:38:40;3.30;;;2.60;;
55037;SDS011;40937;53.594;10.034;2023-01-28T04:41:29;5.20;;;2.38;;
55037;SDS011;40937;53.594;10.034;2023-01-28T04:44:02;3.88;;;2.85;;
55037;SDS011;40937;53.594;10.034;2023-01-28T04:46:55;6.43;;;2.45;;
55037;SDS011;40937;53.594;10.034;2023-01-28T04:49:39;4.30;;;2.45;;
55037;SDS011;40937;53.594;10.034;2023-01-28T04:52:27;3.08;;;2.78;;
55037;SDS011;40937;53.594;10.034;2023-01-28T04:54:54;5.55;;;2.75;;
55037;SDS011;40937;53.594;10.034;2023-01-28T04:57:22;7.60;;;2.65;;
55037;SDS011;40937;53.594;10.034;2023-01-28T04:59:48;3.25;;;2.80;;
55037;SDS011;40937;53.594;10.034;2023-01-28T05:02:15;4.07;;;2.50;;
55037;SDS011;40937;53.594;10.034;2023-01-28T05:04:43;5.43;;;3.08;;
55037;SDS011;40937;53.594;10.034;2023-01-28T05:07:22;5.68;;;3.15;;
55037;SDS011;40937;53.594;10.034;2023-01-28T05:09:50;6.55;;;2.90;;
55037;SDS011;40937;53.594;10.034;2023-01-28T05:12:17;5.85;;;2.83;;
55037;SDS011;40937;53.594;10.034;2023-01-28T05:14:45;3.75;;;2.78;;
55037;SDS011;40937;53.594;10.034;2023-01-28T05:17:16;2.75;;;2.50;;
55037;SDS011;40937;53.594;10.034;2023-01-28T05:19:43;4.60;;;2.75;;
55037;SDS011;40937;53.594;10.034;2023-01-28T05:22:16;2.88;;;2.55;;
55037;SDS011;40937;53.594;10.034;2023-01-28T05:24:48;4.45;;;3.08;;
55037;SDS011;40937;53.594;10.034;2023-01-28T05:27:17;4.55;;;2.95;;
55037;SDS011;40937;53.594;10.034;2023-01-28T05:29:44;3.33;;;3.00;;
55037;SDS011;40937;53.594;10.034;2023-01-28T05:32:10;3.28;;;2.92;;
55037;SDS011;40937;53.594;10.034;2023-01-28T05:34:37;3.50;;;3.20;;
55037;SDS011;40937;53.594;10.034;2023-01-28T05:37:11;4.60;;;3.10;;
55037;SDS011;40937;53.594;10.034;2023-01-28T05:39:37;4.70;;;3.20;;
55037;SDS011;40937;53.594;10.034;2023-01-28T05:42:04;7.45;;;3.83;;
55037;SDS011;40937;53.594;10.034;2023-01-28T05:44:35;3.75;;;3.08;;
55037;SDS011;40937;53.594;10.034;2023-01-28T05:47:11;4.60;;;3.55;;
55037;SDS011;40937;53.594;10.034;2023-01-28T05:50:10;4.68;;;3.75;;
55037;SDS011;40937;53.594;10.034;2023-01-28T05:52:43;3.78;;;3.42;;
55037;SDS011;40937;53.594;10.034;2023-01-28T05:55:23;4.15;;;3.75;;
55037;SDS011;40937;53.594;10.034;2023-01-28T05:57:51;4.50;;;3.20;;
55037;SDS011;40937;53.594;10.034;2023-01-28T06:00:22;5.78;;;3.50;;
55037;SDS011;40937;53.594;10.034;2023-01-28T06:02:50;5.25;;;2.95;;
55037;SDS011;40937;53.594;10.034;2023-01-28T06:05:18;3.25;;;3.05;;
55037;SDS011;40937;53.594;10.034;2023-01-28T06:07:46;3.15;;;2.85;;
55037;SDS011;40937;53.594;10.034;2023-01-28T06:10:14;7.50;;;3.40;;
55037;SDS011;40937;53.594;10.034;2023-01-28T06:12:42;4.40;;;3.70;;
55037;SDS011;40937;53.594;10.034;2023-01-28T06:15:34;4.78;;;3.50;;
55037;SDS011;40937;53.594;10.034;2023-01-28T06:18:31;4.43;;;3.53;;
55037;SDS011;40937;53.594;10.034;2023-01-28T06:20:57;4.22;;;3.80;;
55037;SDS011;40937;53.594;10.034;2023-01-28T06:23:24;5.05;;;3.90;;
55037;SDS011;40937;53.594;10.034;2023-01-28T06:25:52;4.32;;;3.47;;
55037;SDS011;40937;53.594;10.034;2023-01-28T06:28:20;4.32;;;3.38;;
55037;SDS011;40937;53.594;10.034;2023-01-28T06:30:48;5.75;;;3.10;;
55037;SDS011;40937;53.594;10.034;2023-01-28T06:33:16;7.05;;;3.42;;
55037;SDS011;40937;53.594;10.034;2023-01-28T06:35:42;5.97;;;3.72;;
55037;SDS011;40937;53.594;10.034;2023-01-28T06:38:09;6.10;;;3.63;;
55037;SDS011;40937;53.594;10.034;2023-01-28T06:40:36;4.68;;;4.22;;
55037;SDS011;40937;53.594;10.034;2023-01-28T06:43:03;3.65;;;3.42;;
55037;SDS011;40937;53.594;10.034;2023-01-28T06:45:30;6.80;;;3.85;;
55037;SDS011;40937;53.594;10.034;2023-01-28T06:47:58;4.60;;;3.80;;
55037;SDS011;40937;53.594;10.034;2023-01-28T06:50:25;6.15;;;3.92;;
55037;SDS011;40937;53.594;10.034;2023-01-28T06:52:52;5.05;;;3.80;;
55037;SDS011;40937;53.594;10.034;2023-01-28T06:55:18;5.20;;;4.80;;
55037;SDS011;40937;53.594;10.034;2023-01-28T06:57:45;4.95;;;4.15;;
55037;SDS011;40937;53.594;10.034;2023-01-28T07:00:12;6.07;;;3.90;;
55037;SDS011;40937;53.594;10.034;2023-01-28T07:02:40;5.40;;;3.95;;
55037;SDS011;40937;53.594;10.034;2023-01-28T07:05:09;8.88;;;4.15;;
55037;SDS011;40937;53.594;10.034;2023-01-28T07:07:36;7.47;;;3.88;;
55037;SDS011;40937;53.594;10.034;2023-01-28T07:10:03;4.80;;;4.40;;
55037;SDS011;40937;53.594;10.034;2023-01-28T07:12:30;6.10;;;3.83;;
55037;SDS011;40937;53.594;10.034;2023-01-28T07:14:56;5.22;;;4.72;;
55037;SDS011;40937;53.594;10.034;2023-01-28T07:17:24;5.78;;;5.32;;
55037;SDS011;40937;53.594;10.034;2023-01-28T07:19:51;6.25;;;5.50;;
55037;SDS011;40937;53.594;10.034;2023-01-28T07:22:19;9.48;;;5.95;;
55037;SDS011;40937;53.594;10.034;2023-01-28T07:24:46;6.53;;;5.88;;
55037;SDS011;40937;53.594;10.034;2023-01-28T07:27:14;6.97;;;6.38;;
55037;SDS011;40937;53.594;10.034;2023-01-28T07:29:41;7.30;;;6.70;;
55037;SDS011;40937;53.594;10.034;2023-01-28T07:32:08;7.40;;;6.70;;
55037;SDS011;40937;53.594;10.034;2023-01-28T07:34:34;7.90;;;7.05;;
55037;SDS011;40937;53.594;10.034;2023-01-28T07:37:03;8.25;;;7.47;;
55037;SDS011;40937;53.594;10.034;2023-01-28T07:39:32;7.45;;;6.38;;
55037;SDS011;40937;53.594;10.034;2023-01-28T07:41:58;8.05;;;7.28;;
55037;SDS011;40937;53.594;10.034;2023-01-28T07:44:36;7.68;;;6.90;;
55037;SDS011;40937;53.594;10.034;2023-01-28T07:47:03;12.07;;;7.30;;
55037;SDS011;40937;53.594;10.034;2023-01-28T07:49:31;11.20;;;7.88;;
55037;SDS011;40937;53.594;10.034;2023-01-28T07:51:58;7.97;;;7.20;;
55037;SDS011;40937;53.594;10.034;2023-01-28T07:54:25;8.60;;;7.40;;
55037;SDS011;40937;53.594;10.034;2023-01-28T07:56:57;8.32;;;7.63;;
55037;SDS011;40937;53.594;10.034;2023-01-28T07:59:24;9.25;;;8.05;;
55037;SDS011;40937;53.594;10.034;2023-01-28T08:01:51;8.48;;;7.72;;
55037;SDS011;40937;53.594;10.034;2023-01-28T08:04:18;8.40;;;7.57;;
55037;SDS011;40937;53.594;10.034;2023-01-28T08:06:44;12.18;;;8.57;;
55037;SDS011;40937;53.594;10.034;2023-01-28T08:09:11;9.85;;;8.23;;
55037;SDS011;40937;53.594;10.034;2023-01-28T08:11:38;9.32;;;7.95;;
55037;SDS011;40937;53.594;10.034;2023-01-28T08:14:09;8.43;;;7.50;;
55037;SDS011;40937;53.594;10.034;2023-01-28T08:16:36;8.82;;;8.10;;
55037;SDS011;40937;53.594;10.034;2023-01-28T08:19:02;8.98;;;8.07;;
55037;SDS011;40937;53.594;10.034;2023-01-28T08:21:29;9.18;;;8.27;;
55037;SDS011;40937;53.594;10.034;2023-01-28T08:23:56;12.85;;;10.10;;
55037;SDS011;40937;53.594;10.034;2023-01-28T08:26:22;9.25;;;8.40;;
55037;SDS011;40937;53.594;10.034;2023-01-28T08:28:49;10.98;;;8.07;;
55037;SDS011;40937;53.594;10.034;2023-01-28T08:31:17;9.38;;;8.40;;
55037;SDS011;40937;53.594;10.034;2023-01-28T08:33:44;11.55;;;9.15;;
55037;SDS011;40937;53.594;10.034;2023-01-28T08:36:10;10.40;;;9.50;;
55037;SDS011;40937;53.594;10.034;2023-01-28T08:38:37;10.18;;;9.20;;
55037;SDS011;40937;53.594;10.034;2023-01-28T08:41:04;10.23;;;9.32;;
55037;SDS011;40937;53.594;10.034;2023-01-28T08:43:31;11.27;;;9.70;;
55037;SDS011;40937;53.594;10.034;2023-01-28T08:45:57;9.73;;;8.93;;
55037;SDS011;40937;53.594;10.034;2023-01-28T08:48:25;10.60;;;9.60;;
55037;SDS011;40937;53.594;10.034;2023-01-28T08:50:52;9.80;;;9.00;;
55037;SDS011;40937;53.594;10.034;2023-01-28T08:53:19;8.95;;;8.07;;
55037;SDS011;40937;53.594;10.034;2023-01-28T08:55:46;11.95;;;9.05;;
55037;SDS011;40937;53.594;10.034;2023-01-28T08:58:13;9.20;;;8.18;;
55037;SDS011;40937;53.594;10.034;2023-01-28T09:00:41;10.30;;;9.27;;
55037;SDS011;40937;53.594;10.034;2023-01-28T09:03:08;8.85;;;8.25;;
55037;SDS011;40937;53.594;10.034;2023-01-28T09:05:37;10.02;;;8.80;;
55037;SDS011;40937;53.594;10.034;2023-01-28T09:08:05;11.10;;;8.63;;
55037;SDS011;40937;53.594;10.034;2023-01-28T09:10:33;9.63;;;8.50;;
55037;SDS011;40937;53.594;10.034;2023-01-28T09:13:03;11.18;;;9.13;;
55037;SDS011;40937;53.594;10.034;2023-01-28T09:15:31;10.45;;;8.35;;
55037;SDS011;40937;53.594;10.034;2023-01-28T09:17:57;9.05;;;8.30;;
55037;SDS011;40937;53.594;10.034;2023-01-28T09:20:24;8.63;;;7.82;;
55037;SDS011;40937;53.594;10.034;2023-01-28T09:22:53;9.38;;;8.18;;
55037;SDS011;40937;53.594;10.034;2023-01-28T09:25:20;8.32;;;7.63;;
55037;SDS011;40937;53.594;10.034;2023-01-28T09:27:47;8.90;;;8.00;;
55037;SDS011;40937;53.594;10.034;2023-01-28T09:30:14;8.23;;;6.68;;
55037;SDS011;40937;53.594;10.034;2023-01-28T09:32:41;9.63;;;6.68;;
55037;SDS011;40937;53.594;10.034;2023-01-28T09:35:08;7.72;;;6.95;;
55037;SDS011;40937;53.594;10.034;2023-01-28T09:37:35;11.10;;;7.68;;
55037;SDS011;40937;53.594;10.034;2023-01-28T09:40:04;7.93;;;7.28;;
55037;SDS011;40937;53.594;10.034;2023-01-28T09:42:38;7.13;;;6.57;;
55037;SDS011;40937;53.594;10.034;2023-01-28T09:45:24;7.43;;;6.70;;
55037;SDS011;40937;53.594;10.034;2023-01-28T09:47:57;7.07;;;6.45;;
55037;SDS011;40937;53.594;10.034;2023-01-28T09:50:30;8.65;;;5.80;;
55037;SDS011;40937;53.594;10.034;2023-01-28T09:52:59;7.45;;;5.95;;
55037;SDS011;40937;53.594;10.034;2023-01-28T09:55:33;10.38;;;5.43;;
55037;SDS011;40937;53.594;10.034;2023-01-28T09:58:04;8.20;;;6.60;;
55037;SDS011;40937;53.594;10.034;2023-01-28T10:00:41;8.15;;;6.47;;
55037;SDS011;40937;53.594;10.034;2023-01-28T10:08:21;5.90;;;5.38;;
55037;SDS011;40937;53.594;10.034;2023-01-28T10:11:01;11.57;;;6.32;;
55037;SDS011;40937;53.594;10.034;2023-01-28T10:13:39;6.13;;;5.32;;
55037;SDS011;40937;53.594;10.034;2023-01-28T10:16:18;7.80;;;6.18;;
55037;SDS011;40937;53.594;10.034;2023-01-28T10:18:54;6.90;;;6.32;;
55037;SDS011;40937;53.594;10.034;2023-01-28T10:21:25;7.13;;;6.50;;
55037;SDS011;40937;53.594;10.034;2023-01-28T10:23:55;7.65;;;6.03;;
55037;SDS011;40937;53.594;10.034;2023-01-28T10:26:29;7.00;;;6.38;;
55037;SDS011;40937;53.594;10.034;2023-01-28T10:29:02;7.65;;;6.82;;
55037;SDS011;40937;53.594;10.034;2023-01-28T10:31:34;9.25;;;6.80;;
55037;SDS011;40937;53.594;10.034;2023-01-28T10:34:05;7.70;;;7.00;;
55037;SDS011;40937;53.594;10.034;2023-01-28T10:36:32;13.75;;;6.15;;
55037;SDS011;40937;53.594;10.034;2023-01-28T10:38:59;6.32;;;5.75;;
55037;SDS011;40937;53.594;10.034;2023-01-28T10:41:26;5.97;;;5.40;;
55037;SDS011;40937;53.594;10.034;2023-01-28T10:43:55;9.75;;;6.15;;
55037;SDS011;40937;53.594;10.034;2023-01-28T10:46:22;6.05;;;5.32;;
55037;SDS011;40937;53.594;10.034;2023-01-28T10:48:55;9.80;;;6.15;;
55037;SDS011;40937;53.594;10.034;2023-01-28T10:51:31;5.50;;;5.10;;
55037;SDS011;40937;53.594;10.034;2023-01-28T10:53:59;6.30;;;5.68;;
55037;SDS011;40937;53.594;10.034;2023-01-28T10:56:27;7.70;;;5.45;;
55037;SDS011;40937;53.594;10.034;2023-01-28T10:58:59;6.20;;;5.75;;
55037;SDS011;40937;53.594;10.034;2023-01-28T11:01:37;7.05;;;6.03;;
55037;SDS011;40937;53.594;10.034;2023-01-28T11:04:05;10.65;;;6.90;;
55037;SDS011;40937;53.594;10.034;2023-01-28T11:06:40;11.23;;;7.05;;
55037;SDS011;40937;53.594;10.034;2023-01-28T11:09:18;9.60;;;7.65;;
55037;SDS011;40937;53.594;10.034;2023-01-28T11:11:46;12.98;;;8.10;;
55037;SDS011;40937;53.594;10.034;2023-01-28T11:14:19;10.52;;;7.18;;
55037;SDS011;40937;53.594;10.034;2023-01-28T11:16:50;10.98;;;8.52;;
55037;SDS011;40937;53.594;10.034;2023-01-28T11:19:19;8.63;;;7.82;;
55037;SDS011;40937;53.594;10.034;2023-01-28T11:21:51;12.35;;;8.50;;
55037;SDS011;40937;53.594;10.034;2023-01-28T11:24:21;10.55;;;8.30;;
55037;SDS011;40937;53.594;10.034;2023-01-28T11:26:52;12.75;;;9.60;;
55037;SDS011;40937;53.594;10.034;2023-01-28T11:29:23;8.77;;;8.05;;
55037;SDS011;40937;53.594;10.034;2023-01-28T11:31:52;9.60;;;8.73;;
55037;SDS011;40937;53.594;10.034;2023-01-28T11:34:19;9.60;;;8.68;;
55037;SDS011;40937;53.594;10.034;2023-01-28T11:36:52;13.88;;;8.68;;
55037;SDS011;40937;53.594;10.034;2023-01-28T11:39:20;9.93;;;9.02;;
55037;SDS011;40937;53.594;10.034;2023-01-28T11:41:50;10.05;;;8.30;;
55037;SDS011;40937;53.594;10.034;2023-01-28T11:44:18;9.23;;;8.27;;
55037;SDS011;40937;53.594;10.034;2023-01-28T11:46:52;11.93;;;8.02;;
55037;SDS011;40937;53.594;10.034;2023-01-28T11:49:33;8.98;;;8.27;;
55037;SDS011;40937;53.594;10.034;2023-01-28T11:52:13;11.13;;;8.53;;
55037;SDS011;40937;53.594;10.034;2023-01-28T11:54:51;8.52;;;7.78;;
55037;SDS011;40937;53.594;10.034;2023-01-28T11:57:25;10.13;;;9.13;;
55037;SDS011;40937;53.594;10.034;2023-01-28T12:03:00;10.38;;;9.10;;
55037;SDS011;40937;53.594;10.034;2023-01-28T12:05:47;10.75;;;9.25;;
55037;SDS011;40937;53.594;10.034;2023-01-28T12:08:22;11.05;;;8.82;;
55037;SDS011;40937;53.594;10.034;2023-01-28T12:11:01;9.60;;;8.75;;
55037;SDS011;40937;53.594;10.034;2023-01-28T12:13:46;9.35;;;8.65;;
55037;SDS011;40937;53.594;10.034;2023-01-28T12:16:31;10.25;;;9.20;;
55037;SDS011;40937;53.594;10.034;2023-01-28T12:19:32;9.75;;;8.98;;
55037;SDS011;40937;53.594;10.034;2023-01-28T12:25:20;10.88;;;8.82;;
55037;SDS011;40937;53.594;10.034;2023-01-28T12:27:58;10.45;;;9.52;;
55037;SDS011;40937;53.594;10.034;2023-01-28T12:30:45;9.65;;;8.55;;
55037;SDS011;40937;53.594;10.034;2023-01-28T12:33:37;11.27;;;10.15;;
55037;SDS011;40937;53.594;10.034;2023-01-28T12:36:31;10.75;;;9.50;;
55037;SDS011;40937;53.594;10.034;2023-01-28T12:39:09;15.48;;;9.18;;
55037;SDS011;40937;53.594;10.034;2023-01-28T12:41:50;11.00;;;8.88;;
55037;SDS011;40937;53.594;10.034;2023-01-28T12:44:26;9.82;;;9.00;;
55037;SDS011;40937;53.594;10.034;2023-01-28T12:47:04;11.05;;;8.80;;
55037;SDS011;40937;53.594;10.034;2023-01-28T12:49:36;20.35;;;9.07;;
55037;SDS011;40937;53.594;10.034;2023-01-28T12:52:11;10.13;;;9.15;;
55037;SDS011;40937;53.594;10.034;2023-01-28T12:57:16;9.52;;;8.82;;
55037;SDS011;40937;53.594;10.034;2023-01-28T12:59:48;14.68;;;9.30;;
55037;SDS011;40937;53.594;10.034;2023-01-28T13:02:21;11.13;;;9.63;;
55037;SDS011;40937;53.594;10.034;2023-01-28T13:04:55;19.92;;;10.05;;
55037;SDS011;40937;53.594;10.034;2023-01-28T13:07:35;10.10;;;9.32;;
55037;SDS011;40937;53.594;10.034;2023-01-28T13:10:10;10.30;;;9.38;;
55037;SDS011;40937;53.594;10.034;2023-01-28T13:12:43;11.40;;;10.15;;
55037;SDS011;40937;53.594;10.034;2023-01-28T13:15:12;11.07;;;10.10;;
55037;SDS011;40937;53.594;10.034;2023-01-28T13:20:38;11.38;;;10.38;;
55037;SDS011;40937;53.594;10.034;2023-01-28T13:23:23;18.63;;;11.67;;
55037;SDS011;40937;53.594;10.034;2023-01-28T13:25:54;11.43;;;10.52;;
55037;SDS011;40937;53.594;10.034;2023-01-28T13:28:26;13.55;;;12.13;;
55037;SDS011;40937;53.594;10.034;2023-01-28T13:30:59;12.20;;;11.32;;
55037;SDS011;40937;53.594;10.034;2023-01-28T13:33:31;12.85;;;11.75;;
55037;SDS011;40937;53.594;10.034;2023-01-28T13:36:00;12.43;;;11.52;;
55037;SDS011;40937;53.594;10.034;2023-01-28T13:38:33;15.82;;;12.10;;
55037;SDS011;40937;53.594;10.034;2023-01-28T13:41:01;13.40;;;12.10;;
55037;SDS011;40937;53.594;10.034;2023-01-28T13:43:34;14.18;;;12.98;;
55037;SDS011;40937;53.594;10.034;2023-01-28T13:46:04;13.50;;;12.30;;
55037;SDS011;40937;53.594;10.034;2023-01-28T13:48:37;14.35;;;12.95;;
55037;SDS011;40937;53.594;10.034;2023-01-28T13:51:11;13.90;;;12.52;;
55037;SDS011;40937;53.594;10.034;2023-01-28T13:53:45;13.55;;;12.43;;
55037;SDS011;40937;53.594;10.034;2023-01-28T13:56:19;13.93;;;12.60;;
55037;SDS011;40937;53.594;10.034;2023-01-28T13:58:59;13.45;;;12.25;;
55037;SDS011;40937;53.594;10.034;2023-01-28T14:01:45;14.20;;;13.10;;
55037;SDS011;40937;53.594;10.034;2023-01-28T14:04:53;14.10;;;12.73;;
55037;SDS011;40937;53.594;10.034;2023-01-28T14:07:39;14.63;;;13.13;;
55037;SDS011;40937;53.594;10.034;2023-01-28T14:10:37;13.18;;;12.07;;
55037;SDS011;40937;53.594;10.034;2023-01-28T14:16:15;12.98;;;11.85;;
55037;SDS011;40937;53.594;10.034;2023-01-28T14:18:54;18.65;;;13.60;;
55037;SDS011;40937;53.594;10.034;2023-01-28T14:21:24;17.95;;;13.38;;
55037;SDS011;40937;53.594;10.034;2023-01-28T14:23:53;14.82;;;13.38;;
55037;SDS011;40937;53.594;10.034;2023-01-28T14:26:31;15.32;;;14.02;;
55037;SDS011;40937;53.594;10.034;2023-01-28T14:29:07;15.90;;;14.27;;
55037;SDS011;40937;53.594;10.034;2023-01-28T14:31:41;15.90;;;14.60;;
55037;SDS011;40937;53.594;10.034;2023-01-28T14:34:09;16.08;;;14.43;;
55037;SDS011;40937;53.594;10.034;2023-01-28T14:36:45;16.00;;;14.32;;
55037;SDS011;40937;53.594;10.034;2023-01-28T14:39:16;16.75;;;15.10;;
55037;SDS011;40937;53.594;10.034;2023-01-28T14:41:47;16.02;;;14.45;;
55037;SDS011;40937;53.594;10.034;2023-01-28T14:44:20;19.00;;;16.40;;
55037;SDS011;40937;53.594;10.034;2023-01-28T14:46:57;17.42;;;15.95;;
55037;SDS011;40937;53.594;10.034;2023-01-28T14:49:38;16.35;;;14.68;;
55037;SDS011;40937;53.594;10.034;2023-01-28T14:52:21;18.15;;;14.73;;
55037;SDS011;40937;53.594;10.034;2023-01-28T14:55:08;20.65;;;15.05;;
55037;SDS011;40937;53.594;10.034;2023-01-28T14:57:49;20.88;;;14.88;;
55037;SDS011;40937;53.594;10.034;2023-01-28T15:00:20;15.88;;;14.40;;
55037;SDS011;40937;53.594;10.034;2023-01-28T15:02:56;16.13;;;14.60;;
55037;SDS011;40937;53.594;10.034;2023-01-28T15:05:27;22.45;;;15.57;;
55037;SDS011;40937;53.594;10.034;2023-01-28T15:07:55;18.60;;;14.52;;
55037;SDS011;40937;53.594;10.034;2023-01-28T15:10:23;18.13;;;16.27;;
55037;SDS011;40937;53.594;10.034;2023-01-28T15:12:56;14.30;;;12.15;;
55037;SDS011;40937;53.594;10.034;2023-01-28T15:15:27;15.70;;;14.13;;
55037;SDS011;40937;53.594;10.034;2023-01-28T15:17:57;16.48;;;13.13;;
55037;SDS011;40937;53.594;10.034;2023-01-28T15:20:27;14.15;;;12.77;;
55037;SDS011;40937;53.594;10.034;2023-01-28T15:22:55;14.75;;;13.40;;